Time;durP1;ratioP1;P1;durP2;ratioP2;P2;SDS_P1;SDS_P2;PMS_P1;PMS_P2;Temp;Humidity;BMP_temperature;BMP_pressure;BME280_temperature;BME280_humidity;BME280_pressure;Samples;Min_cycle;Max_cycle;Signal;HPM_P1;HPM_P2
2022/06/03 00:02:55;;;;;;;5.10;1.55;;;12.20;99.90;;;;;;12186333;29;20142;-84
2022/06/03 00:09:22;;;;;;;3.50;1.60;;;12.20;99.90;;;;;;12193640;29;20476;-85
2022/06/03 00:16:05;;;;;;;1.80;1.38;;;12.30;99.90;;;;;;12180888;29;20071;-85
2022/06/03 00:22:39;;;;;;;3.53;1.50;;;12.20;99.90;;;;;;12177627;29;20528;-84
2022/06/03 00:28:59;;;;;;;4.45;1.48;;;12.40;99.90;;;;;;12197186;29;20112;-85
2022/06/03 00:35:00;;;;;;;3.08;1.70;;;12.40;99.90;;;;;;12186328;29;20135;-84
2022/06/03 00:41:18;;;;;;;2.58;1.40;;;12.20;99.90;;;;;;12194151;29;20195;-84
2022/06/03 00:47:20;;;;;;;3.30;1.60;;;12.10;99.90;;;;;;12186818;29;20056;-83
2022/06/03 00:53:59;;;;;;;2.53;1.58;;;11.90;99.90;;;;;;12177067;29;20543;-84
2022/06/03 01:00:21;;;;;;;3.22;1.70;;;11.90;99.90;;;;;;12195105;29;20144;-83
2022/06/03 01:06:35;;;;;;;2.20;1.15;;;11.80;99.90;;;;;;12178963;29;20071;-84
2022/06/03 01:12:39;;;;;;;3.00;1.40;;;11.70;99.90;;;;;;12196790;29;20168;-85
2022/06/03 01:18:49;;;;;;;2.42;1.40;;;11.60;99.90;;;;;;12190321;29;20180;-84
2022/06/03 01:25:23;;;;;;;2.53;1.58;;;11.50;99.90;;;;;;12205563;29;20466;-84
2022/06/03 01:31:52;;;;;;;3.45;1.50;;;11.30;99.90;;;;;;12214948;29;20628;-83
2022/06/03 01:38:04;;;;;;;4.28;1.60;;;11.30;99.90;;;;;;12191968;29;20052;-84
2022/06/03 01:44:17;;;;;;;3.50;2.03;;;11.30;99.90;;;;;;12196997;29;20176;-84
2022/06/03 01:50:46;;;;;;;3.80;2.07;;;11.30;99.90;;;;;;12186155;29;20181;-84
2022/06/03 01:57:23;;;;;;;5.15;1.90;;;11.30;99.90;;;;;;12194360;29;20134;-83
2022/06/03 02:03:44;;;;;;;2.97;2.10;;;11.30;99.90;;;;;;12123774;29;20188;-83
2022/06/03 02:10:04;;;;;;;3.03;1.80;;;11.30;99.90;;;;;;12192855;29;20150;-84
2022/06/03 02:16:38;;;;;;;3.92;2.10;;;11.50;99.90;;;;;;12200329;29;20537;-84
2022/06/03 02:22:40;;;;;;;;;;;11.40;99.90;;;;;;12198218;29;20408;-84
2022/06/03 02:36:06;;;;;;;2.90;1.67;;;11.30;99.90;;;;;;12199670;29;20567;-84
2022/06/03 02:42:45;;;;;;;2.83;1.57;;;11.20;99.90;;;;;;12203728;29;21044;-83
2022/06/03 02:49:25;;;;;;;5.65;1.90;;;11.10;99.90;;;;;;12197972;29;20421;-83
2022/06/03 02:55:53;;;;;;;2.70;1.80;;;11.10;99.90;;;;;;12197923;29;20192;-84
2022/06/03 03:02:35;;;;;;;2.72;1.92;;;11.00;99.90;;;;;;12192518;29;20111;-84
2022/06/03 03:09:06;;;;;;;2.90;2.03;;;11.10;99.90;;;;;;12181427;29;20087;-83
2022/06/03 03:15:20;;;;;;;2.75;2.00;;;11.00;99.90;;;;;;12196657;29;20531;-85
2022/06/03 03:21:51;;;;;;;3.73;1.93;;;10.90;99.90;;;;;;12219022;29;20096;-83
2022/06/03 03:28:02;;;;;;;2.88;2.00;;;10.90;99.90;;;;;;12177229;29;20056;-84
2022/06/03 03:34:15;;;;;;;3.92;2.15;;;10.80;99.90;;;;;;12196705;29;20143;-83
2022/06/03 03:41:01;;;;;;;6.63;2.28;;;10.80;99.90;;;;;;12201149;29;20110;-84
2022/06/03 03:47:16;;;;;;;3.25;2.33;;;10.80;99.90;;;;;;11965530;29;20061;-84
2022/06/03 03:53:36;;;;;;;3.53;1.80;;;10.80;99.90;;;;;;12198542;29;20096;-83
2022/06/03 04:00:12;;;;;;;3.08;1.90;;;10.90;99.90;;;;;;12190789;29;20059;-83
2022/06/03 04:06:31;;;;;;;2.75;2.13;;;10.90;99.90;;;;;;12187459;29;20048;-83
2022/06/03 04:12:38;;;;;;;3.78;2.60;;;10.80;99.90;;;;;;12190026;29;20052;-83
2022/06/03 04:18:52;;;;;;;3.20;2.20;;;10.60;99.90;;;;;;12181391;29;20080;-83
2022/06/03 04:25:09;;;;;;;3.70;2.80;;;10.70;99.90;;;;;;12197151;29;20048;-84
2022/06/03 04:31:33;;;;;;;3.50;2.33;;;10.90;99.90;;;;;;12189903;29;20174;-83
2022/06/03 04:37:37;;;;;;;4.05;2.28;;;11.10;99.90;;;;;;12168677;29;20056;-84
2022/06/03 04:44:08;;;;;;;2.60;2.10;;;11.20;99.90;;;;;;12176541;29;20135;-83
2022/06/03 04:50:41;;;;;;;3.40;2.20;;;11.30;99.90;;;;;;12183909;29;20064;-84
2022/06/03 04:57:07;;;;;;;3.92;2.22;;;11.20;99.90;;;;;;12188137;29;20095;-85
2022/06/03 05:03:59;;;;;;;3.15;2.17;;;11.10;99.90;;;;;;12196735;29;20468;-85
2022/06/03 05:10:52;;;;;;;5.85;2.67;;;11.20;99.90;;;;;;12118152;29;20045;-84
2022/06/03 05:17:28;;;;;;;3.92;2.50;;;11.20;99.90;;;;;;12203268;29;20618;-84
2022/06/03 05:23:51;;;;;;;3.10;2.40;;;11.30;99.90;;;;;;12176944;29;20056;-84
2022/06/03 05:30:11;;;;;;;3.45;2.70;;;11.30;99.90;;;;;;12187475;29;20060;-84
2022/06/03 05:36:33;;;;;;;3.97;2.50;;;11.40;99.90;;;;;;12203071;29;20064;-84
2022/06/03 05:43:17;;;;;;;3.75;2.75;;;11.50;99.90;;;;;;12189023;29;20067;-85
2022/06/03 05:49:30;;;;;;;5.72;2.40;;;11.60;99.90;;;;;;12186283;29;20079;-84
2022/06/03 05:55:55;;;;;;;4.07;2.28;;;12.00;99.90;;;;;;12189924;29;20224;-85
2022/06/03 06:02:15;;;;;;;;;;;12.20;99.90;;;;;;12184862;29;20063;-84
2022/06/03 06:08:25;;;;;;;4.78;2.30;;;12.50;99.90;;;;;;12185503;29;20390;-86
2022/06/03 06:14:37;;;;;;;4.53;2.30;;;12.70;99.90;;;;;;12211888;29;20188;-85
2022/06/03 06:21:13;;;;;;;3.42;2.50;;;12.80;99.90;;;;;;12204215;29;20134;-86
2022/06/03 06:27:22;;;;;;;2.92;2.03;;;13.00;99.90;;;;;;12205099;29;20063;-85
2022/06/03 06:33:59;;;;;;;6.20;2.05;;;13.20;99.90;;;;;;12188841;29;20410;-84
2022/06/03 06:40:19;;;;;;;5.03;1.95;;;13.40;99.90;;;;;;12180735;29;20147;-86
2022/06/03 06:46:26;;;;;;;4.10;1.88;;;13.40;99.90;;;;;;12200438;29;20134;-85
2022/06/03 06:52:57;;;;;;;3.92;2.22;;;13.60;99.90;;;;;;12199785;29;20056;-85
2022/06/03 06:59:10;;;;;;;3.05;1.90;;;13.90;99.90;;;;;;12185108;29;20489;-86
2022/06/03 07:05:39;;;;;;;2.70;1.77;;;14.20;99.90;;;;;;12192513;29;20056;-85
2022/06/03 07:11:59;;;;;;;3.65;1.80;;;14.30;99.90;;;;;;12201817;29;20056;-85
2022/06/03 07:25:11;;;;;;;3.03;1.90;;;14.50;99.90;;;;;;12199321;29;20052;-85
2022/06/03 07:31:38;;;;;;;5.82;1.80;;;14.80;99.90;;;;;;12177040;29;20139;-86
2022/06/03 07:38:04;;;;;;;2.38;1.40;;;15.10;99.90;;;;;;12188339;29;20067;-86
2022/06/03 07:44:34;;;;;;;3.33;1.85;;;15.40;99.90;;;;;;12198005;29;20048;-85
2022/06/03 07:50:45;;;;;;;2.33;1.73;;;15.70;99.90;;;;;;12185008;29;20089;-86
2022/06/03 07:56:47;;;;;;;6.13;1.90;;;15.70;99.90;;;;;;12183384;29;20072;-86
2022/06/03 08:03:06;;;;;;;2.53;1.58;;;15.80;99.90;;;;;;12190103;29;20401;-85
2022/06/03 08:15:36;;;;;;;3.17;1.48;;;16.20;99.90;;;;;;12200342;29;20468;-86
2022/06/03 08:21:52;;;;;;;5.50;1.73;;;16.30;99.90;;;;;;12191175;29;20131;-86
2022/06/03 08:27:59;;;;;;;2.58;1.48;;;16.50;99.90;;;;;;12177281;29;20434;-86
2022/06/03 08:34:04;;;;;;;3.15;1.30;;;16.60;99.90;;;;;;12185098;29;20063;-85
2022/06/03 08:40:34;;;;;;;3.65;1.50;;;16.70;99.90;;;;;;12193282;29;20462;-86
2022/06/03 08:46:48;;;;;;;2.65;1.70;;;17.00;99.90;;;;;;12178147;29;20130;-85
2022/06/03 08:53:17;;;;;;;2.38;1.35;;;17.10;99.90;;;;;;12185751;29;20057;-86
2022/06/03 08:59:27;;;;;;;1.52;1.30;;;17.20;99.90;;;;;;12182427;29;20180;-87
2022/06/03 09:05:41;;;;;;;3.83;1.63;;;17.50;99.90;;;;;;12179421;29;20112;-87
2022/06/03 09:11:53;;;;;;;6.35;1.50;;;17.50;99.90;;;;;;12195128;29;20078;-85
2022/06/03 09:18:04;;;;;;;2.10;1.30;;;17.50;99.90;;;;;;12172156;29;20464;-85
2022/06/03 09:24:12;;;;;;;3.80;1.65;;;17.60;99.90;;;;;;12195544;29;20095;-86
2022/06/03 09:30:24;;;;;;;2.90;1.35;;;17.90;99.90;;;;;;12172496;29;20048;-85
2022/06/03 09:36:27;;;;;;;2.75;1.33;;;18.10;99.90;;;;;;12188137;29;20060;-85
2022/06/03 09:42:33;;;;;;;2.75;1.50;;;18.30;99.90;;;;;;12196291;29;20587;-87
2022/06/03 09:48:36;;;;;;;2.28;1.20;;;18.40;99.90;;;;;;12190404;29;20055;-85
2022/06/03 09:54:42;;;;;;;3.75;1.40;;;18.60;99.90;;;;;;12188988;29;20064;-87
2022/06/03 10:00:48;;;;;;;3.63;1.30;;;18.80;99.90;;;;;;12194991;29;20448;-87
2022/06/03 10:06:51;;;;;;;2.83;1.00;;;18.90;99.90;;;;;;12177262;29;20082;-86
2022/06/03 10:12:53;;;;;;;3.43;1.10;;;19.10;99.90;;;;;;12178816;29;20049;-86
2022/06/03 10:18:56;;;;;;;3.90;1.10;;;19.30;99.90;;;;;;12205926;29;20382;-85
2022/06/03 10:24:58;;;;;;;5.95;1.13;;;19.20;99.90;;;;;;12194477;29;20077;-87
2022/06/03 10:31:04;;;;;;;2.53;1.13;;;19.20;99.90;;;;;;12209903;29;20036;-87
2022/06/03 10:37:09;;;;;;;2.00;1.10;;;19.40;99.90;;;;;;12201663;28;20788;-87
2022/06/03 10:43:12;;;;;;;4.47;1.15;;;19.50;99.90;;;;;;12194624;29;20052;-87
2022/06/03 10:49:14;;;;;;;4.15;0.85;;;19.70;99.90;;;;;;12203251;29;20060;-87
2022/06/03 11:02:16;;;;;;;2.17;1.00;;;19.80;99.90;;;;;;12109516;29;20059;-85
2022/06/03 11:08:19;;;;;;;2.55;1.10;;;20.10;99.90;;;;;;12204610;29;20044;-86
2022/06/03 11:14:41;;;;;;;2.70;1.00;;;20.10;99.90;;;;;;12201731;29;20572;-86
2022/06/03 11:20:45;;;;;;;3.25;1.05;;;20.20;99.90;;;;;;12201371;29;20530;-86
2022/06/03 11:26:47;;;;;;;2.47;1.02;;;20.50;99.90;;;;;;12194895;29;20139;-87
2022/06/03 11:32:54;;;;;;;2.60;1.20;;;20.60;99.90;;;;;;12206890;29;20048;-87
2022/06/03 11:39:26;;;;;;;2.35;1.13;;;20.70;99.90;;;;;;12214570;29;20087;-87
2022/06/03 11:45:36;;;;;;;2.92;1.40;;;20.70;99.90;;;;;;12183107;29;20122;-87
2022/06/03 11:51:39;;;;;;;2.22;1.30;;;20.70;99.90;;;;;;12199155;29;20048;-88
2022/06/03 11:57:57;;;;;;;3.37;1.57;;;20.80;99.90;;;;;;12194720;29;20448;-86
2022/06/03 12:04:25;;;;;;;4.82;1.38;;;20.70;99.90;;;;;;12190165;29;20064;-86
2022/06/03 12:10:52;;;;;;;3.40;1.27;;;20.90;99.90;;;;;;12179891;29;20060;-86
2022/06/03 12:17:18;;;;;;;2.35;1.40;;;20.90;99.90;;;;;;12193630;29;20493;-87
2022/06/03 12:23:19;;;;;;;5.78;1.45;;;20.80;99.90;;;;;;12178782;29;20501;-86
2022/06/03 12:29:36;;;;;;;2.50;1.40;;;21.00;99.90;;;;;;12183307;29;20078;-86
2022/06/03 12:35:50;;;;;;;4.45;1.42;;;20.90;99.90;;;;;;12195988;29;20129;-87
2022/06/03 12:41:56;;;;;;;3.22;1.15;;;21.40;99.90;;;;;;12189373;29;20044;-86
2022/06/03 12:48:45;;;;;;;3.30;1.20;;;21.40;99.90;;;;;;12213084;29;20107;-87
2022/06/03 12:54:52;;;;;;;3.20;1.40;;;21.50;99.90;;;;;;12196758;29;20154;-86
2022/06/03 13:00:57;;;;;;;1.42;0.95;;;21.30;99.90;;;;;;12181891;29;20413;-87
2022/06/03 13:07:28;;;;;;;3.50;1.17;;;21.40;99.90;;;;;;12201641;29;20611;-87
2022/06/03 13:13:30;;;;;;;3.08;1.23;;;20.90;99.90;;;;;;12178915;29;20192;-87
2022/06/03 13:19:31;;;;;;;1.67;1.05;;;20.70;99.90;;;;;;12191631;29;20135;-86
2022/06/03 13:25:34;;;;;;;3.30;1.05;;;20.60;99.90;;;;;;12190166;29;20051;-88
2022/06/03 13:31:42;;;;;;;1.67;1.10;;;20.60;99.90;;;;;;12184919;29;20048;-88
2022/06/03 13:37:45;;;;;;;4.15;1.20;;;20.90;99.90;;;;;;12187479;29;20062;-87
2022/06/03 13:44:18;;;;;;;1.92;1.00;;;20.60;99.90;;;;;;12180671;29;20103;-87
2022/06/03 13:50:35;;;;;;;2.22;1.20;;;20.70;99.90;;;;;;12161751;29;20079;-88
2022/06/03 13:56:37;;;;;;;2.08;1.00;;;20.90;99.90;;;;;;12209591;29;20052;-87
2022/06/03 14:02:41;;;;;;;3.13;1.40;;;21.10;99.90;;;;;;12189848;29;20064;-87
2022/06/03 14:08:50;;;;;;;2.17;1.30;;;20.80;99.90;;;;;;12187830;29;20476;-86
2022/06/03 14:15:20;;;;;;;2.38;1.30;;;20.60;99.90;;;;;;12192553;29;20287;-87
2022/06/03 14:21:37;;;;;;;4.20;1.40;;;20.40;99.90;;;;;;12184255;29;20548;-86
2022/06/03 14:27:51;;;;;;;3.95;1.20;;;20.50;99.90;;;;;;12207514;29;20073;-87
2022/06/03 14:33:56;;;;;;;3.70;1.25;;;20.80;99.90;;;;;;12201542;29;20096;-86
2022/06/03 14:40:05;;;;;;;2.60;1.30;;;20.70;99.90;;;;;;12191415;29;20159;-86
2022/06/03 14:46:14;;;;;;;2.42;1.30;;;20.70;99.90;;;;;;12210773;29;20131;-87
2022/06/03 14:52:28;;;;;;;3.67;1.20;;;20.70;99.90;;;;;;12197974;29;20059;-88
2022/06/03 14:58:45;;;;;;;2.78;1.30;;;20.90;99.90;;;;;;12202211;29;20056;-87
2022/06/03 15:04:53;;;;;;;18.15;3.97;;;20.70;99.90;;;;;;12205508;29;20080;-87
2022/06/03 15:11:03;;;;;;;3.28;1.42;;;20.60;99.90;;;;;;12191911;29;20084;-86
2022/06/03 15:17:06;;;;;;;9.90;2.10;;;20.60;99.90;;;;;;12200254;29;20086;-87
2022/06/03 15:23:08;;;;;;;4.38;1.35;;;20.70;99.90;;;;;;12206873;29;20485;-88
2022/06/03 15:29:19;;;;;;;2.53;0.90;;;20.80;99.90;;;;;;12182425;29;20147;-87
2022/06/03 15:35:27;;;;;;;4.63;1.30;;;20.90;99.90;;;;;;12185566;29;20513;-87
2022/06/03 15:41:29;;;;;;;3.05;1.30;;;20.70;99.90;;;;;;12183470;29;20134;-87
2022/06/03 15:47:36;;;;;;;2.90;1.30;;;20.70;99.90;;;;;;12181579;29;20103;-86
2022/06/03 15:53:50;;;;;;;3.40;1.30;;;20.70;99.90;;;;;;12192064;29;20056;-87
2022/06/03 16:00:05;;;;;;;4.30;1.30;;;20.70;99.90;;;;;;12179231;29;20056;-86
2022/06/03 16:06:29;;;;;;;2.88;1.30;;;20.40;99.90;;;;;;12186356;29;20437;-87
2022/06/03 16:12:50;;;;;;;;;;;20.30;99.90;;;;;;12176805;29;20060;-86
2022/06/03 16:19:23;;;;;;;2.15;1.33;;;20.30;99.90;;;;;;12187719;29;19923;-86
2022/06/03 16:25:40;;;;;;;2.20;1.25;;;20.40;99.90;;;;;;12196328;29;20489;-86
2022/06/03 16:32:10;;;;;;;3.15;1.27;;;20.30;99.90;;;;;;12194871;29;20509;-87
2022/06/03 16:38:26;;;;;;;2.75;1.13;;;20.50;99.90;;;;;;12198770;29;20146;-87
2022/06/03 16:45:00;;;;;;;4.32;1.35;;;20.60;99.90;;;;;;12180328;29;20192;-86
2022/06/03 16:51:02;;;;;;;2.35;1.10;;;20.50;99.90;;;;;;12195391;29;20456;-87
2022/06/03 16:57:15;;;;;;;3.08;1.50;;;20.20;99.90;;;;;;12203872;29;20056;-86
2022/06/03 17:03:17;;;;;;;3.33;1.30;;;20.00;99.90;;;;;;12176852;29;20060;-86
2022/06/03 17:09:22;;;;;;;1.83;1.25;;;19.90;99.90;;;;;;12190482;29;20063;-87
2022/06/03 17:15:26;;;;;;;2.05;1.15;;;19.80;99.90;;;;;;12191434;29;20183;-86
2022/06/03 17:21:30;;;;;;;;;;;19.80;99.90;;;;;;12225609;29;20036;-87
2022/06/03 17:27:54;;;;;;;3.78;1.40;;;19.70;99.90;;;;;;12185940;29;19927;-85
2022/06/03 17:34:33;;;;;;;2.60;1.30;;;19.50;99.90;;;;;;12203991;29;20084;-87
2022/06/03 17:40:55;;;;;;;2.63;1.40;;;19.50;99.90;;;;;;12194850;29;20052;-86
2022/06/03 17:47:14;;;;;;;5.63;1.53;;;19.50;99.90;;;;;;12188906;29;20454;-86
2022/06/03 18:00:16;;;;;;;5.15;1.75;;;19.40;99.90;;;;;;12153309;29;20525;-85
2022/06/03 18:06:18;;;;;;;2.30;1.40;;;19.40;99.90;;;;;;12183139;29;20093;-87
2022/06/03 18:12:24;;;;;;;4.30;1.40;;;19.30;99.90;;;;;;12184898;29;20716;-86
2022/06/03 18:18:46;;;;;;;1.98;1.40;;;19.20;99.90;;;;;;12202557;29;20048;-87
2022/06/03 18:25:23;;;;;;;3.08;1.30;;;19.10;99.90;;;;;;12189857;29;20849;-86
2022/06/03 18:31:38;;;;;;;2.17;1.50;;;18.90;99.90;;;;;;12193055;29;20189;-86
2022/06/03 18:38:36;;;;;;;2.08;1.48;;;18.90;99.90;;;;;;12191704;29;20393;-86
2022/06/03 18:45:05;;;;;;;6.88;1.30;;;18.80;99.90;;;;;;12168289;29;20052;-86
2022/06/03 18:51:35;;;;;;;3.15;1.73;;;18.70;99.90;;;;;;12185759;29;20219;-85
2022/06/03 18:57:44;;;;;;;2.30;1.50;;;18.50;99.90;;;;;;12196143;29;20107;-86
2022/06/03 19:04:02;;;;;;;3.13;1.58;;;18.50;99.90;;;;;;12192756;29;20079;-85
2022/06/03 19:10:27;;;;;;;3.47;1.70;;;18.50;99.90;;;;;;12194402;29;20622;-85
2022/06/03 19:16:47;;;;;;;3.78;1.83;;;18.30;99.90;;;;;;12209512;29;20053;-86
2022/06/03 19:23:05;;;;;;;3.40;1.60;;;18.20;99.90;;;;;;12200351;29;20107;-86
2022/06/03 19:29:14;;;;;;;5.70;2.38;;;18.20;99.90;;;;;;12194952;29;20067;-85
2022/06/03 19:35:21;;;;;;;5.43;2.25;;;18.10;99.90;;;;;;12191255;29;20178;-86
2022/06/03 19:41:44;;;;;;;4.72;2.10;;;18.00;99.90;;;;;;12174861;29;20055;-85
2022/06/03 19:48:41;;;;;;;5.82;2.22;;;18.00;99.90;;;;;;12173303;29;20126;-86
2022/06/03 19:54:49;;;;;;;2.45;1.80;;;18.00;99.90;;;;;;12118186;29;20107;-85
2022/06/03 20:00:57;;;;;;;2.35;1.65;;;17.80;99.90;;;;;;12173530;29;20072;-85
2022/06/03 20:07:09;;;;;;;3.55;2.00;;;17.70;99.90;;;;;;12171743;29;20052;-85
2022/06/03 20:13:24;;;;;;;2.88;1.60;;;17.60;99.90;;;;;;12182078;29;20562;-85
2022/06/03 20:19:26;;;;;;;3.13;1.70;;;17.50;99.90;;;;;;12172337;29;20452;-85
2022/06/03 20:26:01;;;;;;;2.83;1.50;;;17.40;99.90;;;;;;12185375;29;20086;-84
2022/06/03 20:32:31;;;;;;;3.75;1.75;;;17.40;99.90;;;;;;12187086;29;20072;-85
2022/06/03 20:39:06;;;;;;;3.60;1.65;;;17.30;99.90;;;;;;12192720;29;20091;-85
2022/06/03 20:45:12;;;;;;;3.45;1.70;;;17.20;99.90;;;;;;12189381;29;20055;-85
2022/06/03 20:51:26;;;;;;;3.13;1.60;;;17.20;99.90;;;;;;12191020;29;20139;-85
2022/06/03 20:57:40;;;;;;;3.10;1.30;;;17.20;99.90;;;;;;12203307;29;20121;-84
2022/06/03 21:16:33;;;;;;;3.85;1.33;;;16.90;99.90;;;;;;12198131;29;20104;-85
2022/06/03 21:22:57;;;;;;;3.25;1.20;;;16.80;99.90;;;;;;12209231;29;20075;-85
2022/06/03 21:29:00;;;;;;;2.55;1.05;;;16.90;99.90;;;;;;12175971;29;20056;-85
2022/06/03 21:35:29;;;;;;;3.45;1.40;;;16.80;99.90;;;;;;12175257;29;20056;-85
2022/06/03 21:41:36;;;;;;;3.13;1.13;;;16.80;99.90;;;;;;12185223;29;20064;-84
2022/06/03 21:48:21;;;;;;;3.67;1.67;;;16.70;99.90;;;;;;12202151;29;20143;-84
2022/06/03 21:54:42;;;;;;;2.88;1.30;;;16.60;99.90;;;;;;12177443;29;20135;-84
2022/06/03 22:00:47;;;;;;;4.18;1.05;;;16.50;99.90;;;;;;12202655;29;20083;-85
2022/06/03 22:06:50;;;;;;;2.63;1.25;;;16.40;99.90;;;;;;12183453;29;20102;-85
2022/06/03 22:12:53;;;;;;;4.63;1.20;;;16.40;99.90;;;;;;12204060;29;20052;-85
2022/06/03 22:18:55;;;;;;;3.28;1.05;;;16.30;99.90;;;;;;12177119;29;20131;-84
2022/06/03 22:24:57;;;;;;;2.05;1.05;;;16.30;99.90;;;;;;12179150;29;20161;-84
2022/06/03 22:31:10;;;;;;;1.88;1.00;;;16.20;99.90;;;;;;12210008;29;20080;-85
2022/06/03 22:43:56;;;;;;;2.72;1.30;;;15.90;99.90;;;;;;12211948;29;20104;-85
2022/06/03 22:49:58;;;;;;;2.65;1.20;;;15.80;99.90;;;;;;12168395;29;20091;-84
2022/06/03 22:56:02;;;;;;;5.97;1.20;;;15.70;99.90;;;;;;12193092;29;20170;-84
2022/06/03 23:02:04;;;;;;;1.88;1.10;;;15.70;99.90;;;;;;12184393;29;20143;-84
2022/06/03 23:08:07;;;;;;;3.45;1.33;;;15.60;99.90;;;;;;12200239;29;20053;-84
2022/06/03 23:14:10;;;;;;;3.47;1.20;;;15.50;99.90;;;;;;12186113;29;20063;-84
2022/06/03 23:20:45;;;;;;;4.63;1.40;;;15.40;99.90;;;;;;12202660;29;20085;-84
2022/06/03 23:26:47;;;;;;;2.00;1.20;;;15.40;99.90;;;;;;12198491;29;20449;-83
2022/06/03 23:32:49;;;;;;;2.38;1.38;;;15.30;99.90;;;;;;12194730;29;20055;-84
2022/06/03 23:38:51;;;;;;;3.45;1.33;;;15.20;99.90;;;;;;12185050;29;20177;-84
2022/06/03 23:51:13;;;;;;;3.65;1.40;;;15.00;99.90;;;;;;12197822;29;20464;-84
2022/06/03 23:57:15;;;;;;;2.70;1.60;;;14.90;99.90;;;;;;12179757;29;20052;-84
